PAKK

Details ICAO PAKK (KKA)
Name Koyuk ALFRED ADAMS
Region USA (Alaska)
Timezone America/Anchorage (UTC-8.0)
Plans Departing 4
Arriving 10
Stats Elevation 154 ft / 47 m (AMSL)
Location 64.939069° -161.154738°
Runways 1
Magnetic Variation 11.927° E
Sunrise 2018-05-25 12:46:31 UTC / 2018-05-25 04:46:31 Local
Sunset 2018-05-26 08:39:34 UTC / 2018-05-26 00:39:34 Local
Advertisement - Login to hide

Runways

ID Width Length Bearing (true) Bearing (mag) Surface Threshold Offset Overrun Length
01 59 ft / 18 m 3,003 ft / 915 m 23.94° 12.01° Gravel 0 ft / 0 m 0 ft / 0 m
19 59 ft / 18 m 3,003 ft / 915 m 203.95° 192.02° Gravel 0 ft / 0 m 200 ft / 61 m

Map

Weather


0- 5 10 15 20 25 30 35+ Temperature / ° C

Clouds and Precipitation
Forecast for 2018-05-25 18:00 UTC. Updated 3 hours ago

Ground ~20,000 ft ~40,000 ft Winds

METAR

PAKK 251956Z AUTO 35007KT 10SM CLR 07/M02 A2972 RMK AO2 SLP078 T00721017

TAF

Not found

Frequencies

Recorded 134.95 MHz AWOS-3
Unicom 122.35 MHz FSS Nome
Unicom 122.80 MHz CTAF
Approach 135.70 MHz Anchorage ARTCC
Warning: Do not use this data for real-world aviation or navigation. No guarantee of current accuracy is given.